createdAt,value
2022-10-17T00:01:21.286Z,5.00
2022-10-17T00:03:49.460Z,4.97
2022-10-17T00:06:17.721Z,5.03
2022-10-17T00:08:45.944Z,5.03
2022-10-17T00:11:15.747Z,4.70
2022-10-17T00:13:44.173Z,4.90
2022-10-17T00:16:12.321Z,5.17
2022-10-17T00:18:41.892Z,4.83
2022-10-17T00:21:16.436Z,5.43
2022-10-17T00:23:44.596Z,4.97
2022-10-17T00:26:12.799Z,5.03
2022-10-17T00:28:41.081Z,5.57
2022-10-17T00:31:09.274Z,5.10
2022-10-17T00:33:38.822Z,4.60
2022-10-17T00:36:09.787Z,5.13
2022-10-17T00:38:38.396Z,4.80
2022-10-17T00:41:06.708Z,4.90
2022-10-17T00:43:49.757Z,4.77
2022-10-17T00:46:17.912Z,4.87
2022-10-17T00:48:46.092Z,4.90
2022-10-17T00:51:16.232Z,4.73
2022-10-17T00:53:44.796Z,4.77
2022-10-17T00:56:13.121Z,5.27
2022-10-17T00:58:41.326Z,5.13
2022-10-17T01:01:09.618Z,4.57
2022-10-17T01:03:37.776Z,4.77
2022-10-17T01:06:06.131Z,5.10
2022-10-17T01:08:35.797Z,4.90
2022-10-17T01:11:07.043Z,5.30
2022-10-17T01:13:38.530Z,4.17
2022-10-17T01:16:09.320Z,4.27
2022-10-17T01:18:41.534Z,4.80
2022-10-17T01:21:18.657Z,4.30
2022-10-17T01:24:05.735Z,4.60
2022-10-17T01:26:43.340Z,4.60
2022-10-17T01:29:30.404Z,4.60
2022-10-17T01:32:03.174Z,4.97
2022-10-17T01:34:35.875Z,4.80
2022-10-17T01:37:07.192Z,4.70
2022-10-17T01:39:45.301Z,4.50
2022-10-17T01:42:18.735Z,4.60
2022-10-17T01:44:50.014Z,4.77
2022-10-17T01:47:21.676Z,4.73
2022-10-17T01:49:51.530Z,4.73
2022-10-17T01:52:21.484Z,4.40
2022-10-17T01:54:51.206Z,4.57
2022-10-17T01:57:21.044Z,4.10
2022-10-17T01:59:50.499Z,5.07
2022-10-17T02:02:20.708Z,4.77
2022-10-17T02:04:50.112Z,4.60
2022-10-17T02:07:18.368Z,4.77
2022-10-17T02:09:46.504Z,5.03
2022-10-17T02:12:29.510Z,4.70
2022-10-17T02:15:03.171Z,4.57
2022-10-17T02:17:38.367Z,4.47
2022-10-17T02:20:11.079Z,4.50
2022-10-17T02:22:41.603Z,5.13
2022-10-17T02:25:12.592Z,4.23
2022-10-17T02:27:44.806Z,4.50
2022-10-17T02:30:14.002Z,4.50
2022-10-17T02:32:48.055Z,4.60
2022-10-17T02:35:19.488Z,4.17
2022-10-17T02:37:49.064Z,4.40
2022-10-17T02:40:18.928Z,4.03
2022-10-17T02:42:47.800Z,4.30
2022-10-17T02:45:16.474Z,4.80
2022-10-17T02:47:50.256Z,4.33
2022-10-17T02:50:18.649Z,4.80
2022-10-17T02:52:49.067Z,4.60
2022-10-17T02:55:19.649Z,4.50
2022-10-17T02:57:49.742Z,5.00
2022-10-17T03:00:18.995Z,4.80
2022-10-17T03:02:49.111Z,4.93
2022-10-17T03:05:18.939Z,4.17
2022-10-17T03:07:47.228Z,4.17
2022-10-17T03:10:15.383Z,4.43
2022-10-17T03:12:43.551Z,4.43
2022-10-17T03:15:12.428Z,4.70
2022-10-17T03:17:40.612Z,4.73
2022-10-17T03:20:10.730Z,4.60
2022-10-17T03:22:38.904Z,4.40
2022-10-17T03:25:07.243Z,4.40
2022-10-17T03:27:35.370Z,4.60
2022-10-17T03:30:03.512Z,4.30
2022-10-17T03:32:31.660Z,4.37
2022-10-17T03:34:59.823Z,4.73
2022-10-17T03:37:29.539Z,3.93
2022-10-17T03:39:58.067Z,4.10
2022-10-17T03:42:26.207Z,4.60
2022-10-17T03:44:54.331Z,4.33
2022-10-17T03:47:22.481Z,4.73
2022-10-17T03:49:53.403Z,4.33
2022-10-17T03:52:21.540Z,4.17
2022-10-17T03:54:51.355Z,4.17
2022-10-17T03:57:19.540Z,3.97
2022-10-17T03:59:47.664Z,4.10
2022-10-17T04:02:15.812Z,4.53
2022-10-17T04:04:43.956Z,4.70
2022-10-17T04:07:12.084Z,4.43
2022-10-17T04:09:40.213Z,4.33
2022-10-17T04:12:09.702Z,4.57
2022-10-17T04:14:38.547Z,4.23
2022-10-17T04:17:06.764Z,4.47
2022-10-17T04:19:35.013Z,4.27
2022-10-17T04:22:03.987Z,4.57
2022-10-17T04:24:32.425Z,4.77
2022-10-17T04:27:00.578Z,4.33
2022-10-17T04:29:30.335Z,4.87
2022-10-17T04:31:58.642Z,4.40
2022-10-17T04:34:26.828Z,4.40
2022-10-17T04:36:54.967Z,4.50
2022-10-17T04:39:23.116Z,4.20
2022-10-17T04:41:51.249Z,3.80
2022-10-17T04:44:20.734Z,4.00
2022-10-17T04:46:50.231Z,4.00
2022-10-17T04:49:18.473Z,4.13
2022-10-17T04:51:46.597Z,3.97
2022-10-17T04:54:14.754Z,4.23
2022-10-17T04:56:42.956Z,4.17
2022-10-17T04:59:11.089Z,3.80
2022-10-17T05:01:39.226Z,4.10
2022-10-17T05:04:08.711Z,3.93
2022-10-17T05:06:37.674Z,4.20
2022-10-17T05:09:05.825Z,4.33
2022-10-17T05:11:34.018Z,4.27
2022-10-17T05:14:03.024Z,4.37
2022-10-17T05:16:31.927Z,4.20
2022-10-17T05:19:00.555Z,4.07
2022-10-17T05:21:31.111Z,4.30
2022-10-17T05:23:59.267Z,4.40
2022-10-17T05:26:27.668Z,4.43
2022-10-17T05:28:55.855Z,4.10
2022-10-17T05:31:24.111Z,4.30
2022-10-17T05:33:52.275Z,4.17
2022-10-17T05:36:20.408Z,3.70
2022-10-17T05:38:51.986Z,4.40
2022-10-17T05:41:20.582Z,4.07
2022-10-17T05:43:50.134Z,4.40
2022-10-17T05:46:18.427Z,4.47
2022-10-17T05:48:46.561Z,4.50
2022-10-17T05:51:14.757Z,4.10
2022-10-17T05:53:43.242Z,4.37
2022-10-17T05:56:14.412Z,4.40
2022-10-17T05:58:53.197Z,4.07
2022-10-17T06:01:24.301Z,4.70
2022-10-17T06:03:52.425Z,4.30
2022-10-17T06:06:20.758Z,4.53
2022-10-17T06:08:48.921Z,4.50
2022-10-17T06:11:18.431Z,3.60
2022-10-17T06:13:46.602Z,4.50
2022-10-17T06:16:14.751Z,4.00
2022-10-17T06:18:42.956Z,4.10
2022-10-17T06:21:13.005Z,3.80
2022-10-17T06:23:41.292Z,4.43
2022-10-17T06:26:09.649Z,3.73
2022-10-17T06:28:39.208Z,3.77
2022-10-17T06:31:08.465Z,4.00
2022-10-17T06:33:36.741Z,4.10
2022-10-17T06:36:05.440Z,4.77
2022-10-17T06:38:33.829Z,4.83
2022-10-17T06:41:08.178Z,3.50
2022-10-17T06:43:36.334Z,4.00
2022-10-17T06:46:05.985Z,3.67
2022-10-17T06:48:34.686Z,3.37
2022-10-17T06:51:03.156Z,3.30
2022-10-17T06:53:31.468Z,3.33
2022-10-17T06:56:02.971Z,4.10
2022-10-17T06:58:31.537Z,3.30
2022-10-17T07:01:01.313Z,3.50
2022-10-17T07:03:31.224Z,3.50
2022-10-17T07:05:59.842Z,3.23
2022-10-17T07:08:28.297Z,4.00
2022-10-17T07:10:56.756Z,3.67
2022-10-17T07:13:25.419Z,3.00
2022-10-17T07:18:26.432Z,4.87
2022-10-17T07:20:56.323Z,4.53
2022-10-17T07:23:24.791Z,3.80
2022-10-17T07:25:52.965Z,3.20
2022-10-17T07:28:21.167Z,3.23
2022-10-17T07:30:52.068Z,3.10
2022-10-17T07:33:22.757Z,2.80
2022-10-17T07:35:52.726Z,3.23
2022-10-17T07:38:22.244Z,3.20
2022-10-17T07:40:55.537Z,3.23
2022-10-17T07:43:23.895Z,2.90
2022-10-17T07:45:52.119Z,3.60
2022-10-17T07:48:20.859Z,3.57
2022-10-17T07:50:49.117Z,3.30
2022-10-17T07:53:17.302Z,3.10
2022-10-17T07:55:47.864Z,2.93
2022-10-17T07:58:16.020Z,2.90
2022-10-17T08:00:44.321Z,2.90
2022-10-17T08:03:12.604Z,2.83
2022-10-17T08:05:40.743Z,2.57
2022-10-17T08:08:08.975Z,3.10
2022-10-17T08:10:37.161Z,3.83
2022-10-17T08:13:06.685Z,3.97
2022-10-17T08:15:34.908Z,3.20
2022-10-17T08:18:03.085Z,3.07
2022-10-17T08:20:31.251Z,2.53
2022-10-17T08:22:59.392Z,2.60
2022-10-17T08:25:27.688Z,4.40
2022-10-17T08:27:55.836Z,3.10
2022-10-17T08:30:25.440Z,2.70
2022-10-17T08:32:55.973Z,2.63
2022-10-17T08:35:24.132Z,2.43
2022-10-17T08:37:52.300Z,2.90
2022-10-17T08:40:21.507Z,2.87
2022-10-17T08:43:07.726Z,2.53
2022-10-17T08:45:38.180Z,2.77
2022-10-17T08:48:07.797Z,2.50
2022-10-17T08:50:38.560Z,2.57
2022-10-17T08:53:10.695Z,2.73
2022-10-17T08:55:42.833Z,3.33
2022-10-17T08:58:15.429Z,3.70
2022-10-17T09:00:47.519Z,3.40
2022-10-17T09:03:22.419Z,2.93
2022-10-17T09:05:52.470Z,2.60
2022-10-17T09:08:26.358Z,2.67
2022-10-17T09:10:58.509Z,2.73
2022-10-17T09:13:30.731Z,2.87
2022-10-17T09:16:07.416Z,2.80
2022-10-17T09:18:36.948Z,2.87
2022-10-17T09:21:09.477Z,2.60
2022-10-17T09:23:42.489Z,2.67
2022-10-17T09:26:11.925Z,2.93
2022-10-17T09:28:40.828Z,2.83
2022-10-17T09:31:13.752Z,2.70
2022-10-17T09:33:53.938Z,2.97
2022-10-17T09:36:24.540Z,2.83
2022-10-17T09:38:54.338Z,2.67
2022-10-17T09:44:17.849Z,2.43
2022-10-17T09:46:52.823Z,2.70
2022-10-17T09:49:22.995Z,2.53
2022-10-17T09:51:51.131Z,3.43
2022-10-17T09:54:22.249Z,3.07
2022-10-17T09:57:00.133Z,2.90
2022-10-17T09:59:33.121Z,2.70
2022-10-17T10:02:16.806Z,2.90
2022-10-17T10:05:09.798Z,2.40
2022-10-17T10:07:39.538Z,2.40
2022-10-17T10:10:08.815Z,2.70
2022-10-17T10:12:38.259Z,3.00
2022-10-17T10:15:32.032Z,2.77
2022-10-17T10:18:01.610Z,2.83
2022-10-17T10:20:31.968Z,2.73
2022-10-17T10:23:24.260Z,2.77
2022-10-17T10:25:56.613Z,2.90
2022-10-17T10:28:26.848Z,3.23
2022-10-17T10:30:56.066Z,3.73
2022-10-17T10:33:27.940Z,3.03
2022-10-17T10:35:57.874Z,3.00
2022-10-17T10:38:26.127Z,2.50
2022-10-17T10:40:55.257Z,2.70
2022-10-17T10:43:24.619Z,3.50
2022-10-17T10:45:54.235Z,4.60
2022-10-17T10:48:23.549Z,4.03
2022-10-17T10:50:54.533Z,3.03
2022-10-17T10:53:34.102Z,3.20
2022-10-17T10:56:05.750Z,3.17
2022-10-17T10:58:41.920Z,2.70
2022-10-17T11:01:15.052Z,2.60
2022-10-17T11:03:44.433Z,3.27
2022-10-17T11:06:16.081Z,2.87
2022-10-17T11:08:46.744Z,2.73
2022-10-17T11:11:19.455Z,2.90
2022-10-17T11:13:53.304Z,2.60
2022-10-17T11:16:26.121Z,2.90
2022-10-17T11:18:56.789Z,2.57
2022-10-17T11:21:30.444Z,3.00
2022-10-17T11:24:04.594Z,2.70
2022-10-17T11:26:40.132Z,2.60
2022-10-17T11:29:09.026Z,2.90
2022-10-17T11:31:40.398Z,2.87
2022-10-17T11:34:11.794Z,3.30
2022-10-17T11:36:42.163Z,2.50
2022-10-17T11:39:13.595Z,2.33
2022-10-17T11:41:43.481Z,2.97
2022-10-17T11:44:16.619Z,2.30
2022-10-17T11:46:46.340Z,2.70
2022-10-17T11:49:20.067Z,2.40
2022-10-17T11:52:00.879Z,2.43
2022-10-17T11:54:32.487Z,3.00
2022-10-17T11:57:13.989Z,3.43
2022-10-17T12:00:00.551Z,3.10
2022-10-17T12:02:32.998Z,2.47
2022-10-17T12:05:05.578Z,2.70
2022-10-17T12:07:40.064Z,2.53
2022-10-17T12:10:18.880Z,2.60
2022-10-17T12:12:48.146Z,2.30
2022-10-17T12:15:29.759Z,2.20
2022-10-17T12:18:00.825Z,2.23
2022-10-17T12:20:34.355Z,2.33
2022-10-17T12:23:06.269Z,2.10
2022-10-17T12:25:39.024Z,2.43
2022-10-17T12:28:15.824Z,2.40
2022-10-17T12:31:01.681Z,2.20
2022-10-17T12:33:33.112Z,2.30
2022-10-17T12:36:20.995Z,2.40
2022-10-17T12:38:51.312Z,2.33
2022-10-17T12:41:39.525Z,2.70
2022-10-17T12:44:29.418Z,2.37
2022-10-17T12:46:59.608Z,2.50
2022-10-17T12:49:42.917Z,2.00
2022-10-17T12:52:31.062Z,2.10
2022-10-17T12:55:13.214Z,2.47
2022-10-17T12:57:44.291Z,2.60
2022-10-17T13:00:18.020Z,2.47
2022-10-17T13:02:47.049Z,2.23
2022-10-17T13:05:17.407Z,2.37
2022-10-17T13:07:46.808Z,2.47
2022-10-17T13:10:22.782Z,2.73
2022-10-17T13:12:51.756Z,2.80
2022-10-17T13:15:20.758Z,2.20
2022-10-17T13:17:57.197Z,2.60
2022-10-17T13:20:30.578Z,2.47
2022-10-17T13:22:59.989Z,2.40
2022-10-17T13:25:29.663Z,2.37
2022-10-17T13:28:15.765Z,2.47
2022-10-17T13:30:49.571Z,2.03
2022-10-17T13:33:20.732Z,2.20
2022-10-17T13:35:59.933Z,2.20
2022-10-17T13:38:29.667Z,2.47
2022-10-17T13:41:10.771Z,2.50
2022-10-17T13:43:45.176Z,2.47
2022-10-17T13:46:36.204Z,2.63
2022-10-17T13:49:11.279Z,2.50
2022-10-17T13:51:39.475Z,2.20
2022-10-17T13:54:18.993Z,2.40
2022-10-17T13:56:48.588Z,2.37
2022-10-17T13:59:21.525Z,2.13
2022-10-17T14:01:49.874Z,2.23
2022-10-17T14:04:20.487Z,2.87
2022-10-17T14:06:52.130Z,2.70
2022-10-17T14:09:23.580Z,2.80
2022-10-17T14:12:00.994Z,2.70
2022-10-17T14:14:32.173Z,2.97
2022-10-17T14:17:14.167Z,2.67
2022-10-17T14:19:42.442Z,2.47
2022-10-17T14:22:18.413Z,2.70
2022-10-17T14:24:46.595Z,2.80
2022-10-17T14:27:30.422Z,2.60
2022-10-17T14:30:00.732Z,2.70
2022-10-17T14:32:29.668Z,2.67
2022-10-17T14:35:16.626Z,2.50
2022-10-17T14:37:48.705Z,3.00
2022-10-17T14:40:18.386Z,3.60
2022-10-17T14:42:48.766Z,2.50
2022-10-17T14:45:23.975Z,3.20
2022-10-17T14:47:52.767Z,3.27
2022-10-17T14:50:23.497Z,3.33
2022-10-17T14:53:01.173Z,3.17
2022-10-17T14:55:30.516Z,2.70
2022-10-17T14:58:00.270Z,2.77
2022-10-17T15:00:28.723Z,2.67
2022-10-17T15:02:57.577Z,2.90
2022-10-17T15:05:25.865Z,2.87
2022-10-17T15:07:54.064Z,3.13
2022-10-17T15:10:34.350Z,3.10
2022-10-17T15:13:26.504Z,3.13
2022-10-17T15:15:52.500Z,3.27
2022-10-17T15:18:21.053Z,3.27
2022-10-17T15:20:55.380Z,3.17
2022-10-17T15:23:33.002Z,2.97
2022-10-17T15:26:01.132Z,3.37
2022-10-17T15:28:30.707Z,3.70
2022-10-17T15:30:58.850Z,3.53
2022-10-17T15:33:27.055Z,3.30
2022-10-17T15:35:55.341Z,3.67
2022-10-17T15:38:23.568Z,3.60
2022-10-17T15:40:51.956Z,3.77
2022-10-17T15:43:20.293Z,4.10
2022-10-17T15:45:50.083Z,2.97
2022-10-17T15:48:20.320Z,3.00
2022-10-17T15:50:48.496Z,2.80
2022-10-17T15:53:16.852Z,2.60
2022-10-17T15:55:45.015Z,2.60
2022-10-17T15:58:14.675Z,2.77
2022-10-17T16:00:42.951Z,2.80
2022-10-17T16:03:12.726Z,2.70
2022-10-17T16:05:40.903Z,2.73
2022-10-17T16:08:09.056Z,3.03
2022-10-17T16:10:38.857Z,2.90
2022-10-17T16:13:06.995Z,2.87
2022-10-17T16:15:35.155Z,3.00
2022-10-17T16:18:06.629Z,2.57
2022-10-17T16:20:38.184Z,2.53
2022-10-17T16:23:08.302Z,2.87
2022-10-17T16:25:36.528Z,3.17
2022-10-17T16:28:06.162Z,2.93
2022-10-17T16:30:34.572Z,2.80
2022-10-17T16:33:02.733Z,2.40
2022-10-17T16:35:36.539Z,2.93
2022-10-17T16:38:07.193Z,3.10
2022-10-17T16:40:35.422Z,3.37
2022-10-17T16:43:03.572Z,2.97
2022-10-17T16:45:31.977Z,3.30
2022-10-17T16:48:00.191Z,3.10
2022-10-17T16:50:28.335Z,3.00
2022-10-17T16:52:56.489Z,3.50
2022-10-17T16:55:25.986Z,3.70
2022-10-17T16:57:54.242Z,3.50
2022-10-17T17:00:22.449Z,3.67
2022-10-17T17:02:50.625Z,2.90
2022-10-17T17:05:18.827Z,2.70
2022-10-17T17:07:48.123Z,3.30
2022-10-17T17:10:16.272Z,2.67
2022-10-17T17:12:45.769Z,2.90
2022-10-17T17:15:13.900Z,2.50
2022-10-17T17:17:50.648Z,2.50
2022-10-17T17:20:21.588Z,2.50
2022-10-17T17:22:50.736Z,3.13
2022-10-17T17:25:18.860Z,3.20
2022-10-17T17:27:48.343Z,2.77
2022-10-17T17:30:16.505Z,2.20
2022-10-17T17:32:44.661Z,1.80
2022-10-17T17:35:13.028Z,2.20
2022-10-17T17:37:41.204Z,2.40
2022-10-17T17:40:09.763Z,2.37
2022-10-17T17:42:37.868Z,1.83
2022-10-17T17:45:08.148Z,2.30
2022-10-17T17:47:36.323Z,2.20
2022-10-17T17:50:04.663Z,1.80
2022-10-17T17:52:33.084Z,1.77
2022-10-17T17:55:01.379Z,1.93
2022-10-17T17:57:30.939Z,1.80
2022-10-17T17:59:59.136Z,1.67
2022-10-17T18:02:29.020Z,1.90
2022-10-17T18:04:57.365Z,1.70
2022-10-17T18:07:25.551Z,1.60
2022-10-17T18:09:53.697Z,2.03
2022-10-17T18:12:21.840Z,1.90
2022-10-17T18:14:50.018Z,1.80
2022-10-17T18:17:18.187Z,1.97
2022-10-17T18:19:47.705Z,1.80
2022-10-17T18:22:15.928Z,1.90
2022-10-17T18:24:44.054Z,1.70
2022-10-17T18:27:13.455Z,2.17
2022-10-17T18:29:41.609Z,1.70
2022-10-17T18:32:09.752Z,1.80
2022-10-17T18:34:37.925Z,2.07
2022-10-17T18:37:07.431Z,2.00
2022-10-17T18:39:35.718Z,1.87
2022-10-17T18:42:03.885Z,2.03
2022-10-17T18:44:32.037Z,1.93
2022-10-17T18:47:03.821Z,2.00
2022-10-17T18:49:32.857Z,2.20
2022-10-17T18:52:01.105Z,2.00
2022-10-17T18:54:33.300Z,2.20
2022-10-17T18:57:01.535Z,2.27
2022-10-17T18:59:29.683Z,2.67
2022-10-17T19:01:58.005Z,2.80
2022-10-17T19:04:26.306Z,2.57
2022-10-17T19:06:54.456Z,3.03
2022-10-17T19:09:22.976Z,3.07
2022-10-17T19:11:52.553Z,3.10
2022-10-17T19:14:20.889Z,3.20
2022-10-17T19:16:50.862Z,3.20
2022-10-17T19:19:20.058Z,3.20
2022-10-17T19:21:48.581Z,3.77
2022-10-17T19:24:19.437Z,3.80
2022-10-17T19:26:50.111Z,3.70
2022-10-17T19:29:20.063Z,3.90
2022-10-17T19:31:48.910Z,3.60
2022-10-17T19:34:17.733Z,4.23
2022-10-17T19:36:46.130Z,4.40
2022-10-17T19:39:15.831Z,4.17
2022-10-17T19:41:44.664Z,4.13
2022-10-17T19:44:13.136Z,3.87
2022-10-17T19:46:44.270Z,4.77
2022-10-17T19:49:13.209Z,4.70
2022-10-17T19:51:41.432Z,4.73
2022-10-17T19:54:09.611Z,4.30
2022-10-17T19:56:38.340Z,4.97
2022-10-17T19:59:06.977Z,4.70
2022-10-17T20:01:36.013Z,4.77
2022-10-17T20:04:05.559Z,4.63
2022-10-17T20:06:33.751Z,4.73
2022-10-17T20:09:01.948Z,4.90
2022-10-17T20:11:30.625Z,4.43
2022-10-17T20:13:58.908Z,5.27
2022-10-17T20:16:28.017Z,5.13
2022-10-17T20:18:57.329Z,5.30
2022-10-17T20:21:28.143Z,5.00
2022-10-17T20:23:56.408Z,5.67
2022-10-17T20:26:33.603Z,5.87
2022-10-17T20:29:08.645Z,5.90
2022-10-17T20:31:37.029Z,5.73
2022-10-17T20:34:05.184Z,6.00
2022-10-17T20:36:36.977Z,6.63
2022-10-17T20:39:06.156Z,5.97
2022-10-17T20:41:34.605Z,6.57
2022-10-17T20:44:02.802Z,6.73
2022-10-17T20:46:44.332Z,6.83
2022-10-17T20:49:17.494Z,6.63
2022-10-17T20:51:47.180Z,6.40
2022-10-17T20:54:15.347Z,6.50
2022-10-17T20:56:43.557Z,7.20
2022-10-17T20:59:14.792Z,7.00
2022-10-17T21:01:42.973Z,7.03
2022-10-17T21:04:40.567Z,6.70
2022-10-17T21:07:00.884Z,6.13
2022-10-17T21:09:29.101Z,7.07
2022-10-17T21:11:57.559Z,6.53
2022-10-17T21:14:26.669Z,7.00
2022-10-17T21:16:54.933Z,6.60
2022-10-17T21:19:23.244Z,7.37
2022-10-17T21:21:51.618Z,7.43
2022-10-17T21:24:21.156Z,6.90
2022-10-17T21:26:55.004Z,7.80
2022-10-17T21:29:23.561Z,7.97
2022-10-17T21:31:52.042Z,9.13
2022-10-17T21:34:21.148Z,9.40
2022-10-17T21:36:49.779Z,9.37
2022-10-17T21:39:18.184Z,10.27
2022-10-17T21:41:47.714Z,10.27
2022-10-17T21:44:16.690Z,9.70
2022-10-17T21:46:45.113Z,9.57
2022-10-17T21:49:13.703Z,9.60
2022-10-17T21:51:42.124Z,9.10
2022-10-17T21:54:10.345Z,9.50
2022-10-17T21:56:38.471Z,9.77
2022-10-17T21:59:08.348Z,9.33
2022-10-17T22:01:40.302Z,9.43
2022-10-17T22:04:10.291Z,9.23
2022-10-17T22:06:40.806Z,9.40
2022-10-17T22:09:10.104Z,9.77
2022-10-17T22:11:38.377Z,9.37
2022-10-17T22:14:08.939Z,10.00
2022-10-17T22:16:37.153Z,9.87
2022-10-17T22:19:06.681Z,10.83
2022-10-17T22:21:35.572Z,9.83
2022-10-17T22:24:04.605Z,9.57
2022-10-17T22:26:33.503Z,9.20
2022-10-17T22:29:02.080Z,9.30
2022-10-17T22:31:31.639Z,8.60
2022-10-17T22:33:59.799Z,8.63
2022-10-17T22:36:28.176Z,8.80
2022-10-17T22:38:56.336Z,8.13
2022-10-17T22:41:24.467Z,7.97
2022-10-17T22:43:52.623Z,8.37
2022-10-17T22:46:20.806Z,8.73
2022-10-17T22:48:50.315Z,8.30
2022-10-17T22:51:19.272Z,8.27
2022-10-17T22:53:47.447Z,7.93
2022-10-17T22:56:16.688Z,9.50
2022-10-17T22:58:44.835Z,9.00
2022-10-17T23:01:15.628Z,8.87
2022-10-17T23:03:43.853Z,8.30
2022-10-17T23:06:13.395Z,7.70
2022-10-17T23:08:42.003Z,8.43
2022-10-17T23:11:10.744Z,8.83
2022-10-17T23:13:39.691Z,9.47
2022-10-17T23:16:08.388Z,10.00
2022-10-17T23:18:36.590Z,10.53
2022-10-17T23:21:04.739Z,10.93
2022-10-17T23:23:34.405Z,10.43
2022-10-17T23:26:05.736Z,10.67
2022-10-17T23:28:35.531Z,10.83
2022-10-17T23:31:14.452Z,10.30
2022-10-17T23:33:44.680Z,9.93
2022-10-17T23:36:13.390Z,10.23
2022-10-17T23:38:52.701Z,10.67
2022-10-17T23:41:32.295Z,10.23
2022-10-17T23:44:05.399Z,10.87
2022-10-17T23:46:33.611Z,10.73
2022-10-17T23:49:11.033Z,10.50
2022-10-17T23:51:46.568Z,9.43
2022-10-17T23:54:22.509Z,9.43
2022-10-17T23:56:51.050Z,9.70
2022-10-17T23:59:19.243Z,9.17
